Time;durP1;ratioP1;P1;durP2;ratioP2;P2;SDS_P1;SDS_P2;PMS_P1;PMS_P2;Temp;Humidity;BMP_temperature;BMP_pressure;BME280_temperature;BME280_humidity;BME280_pressure;Samples;Min_cycle;Max_cycle;Signal;HPM_P1;HPM_P2
2021/03/11 00:00:41;;;;;;;22.35;13.88;;;8.10;85.80;;;;;;5051319;28;20556;-77
2021/03/11 00:03:07;;;;;;;20.75;13.93;;;8.10;85.80;;;;;;5051590;28;20052;-78
2021/03/11 00:05:34;;;;;;;28.98;14.82;;;8.10;85.70;;;;;;5051257;28;20384;-77
2021/03/11 00:08:00;;;;;;;24.00;14.02;;;8.10;86.10;;;;;;5052731;28;20025;-77
2021/03/11 00:10:26;;;;;;;20.55;13.48;;;8.10;86.20;;;;;;5054805;28;20412;-77
2021/03/11 00:12:52;;;;;;;21.40;13.73;;;8.00;86.00;;;;;;5056650;28;20035;-78
2021/03/11 00:15:19;;;;;;;19.73;13.18;;;8.10;86.10;;;;;;5038827;28;20043;-78
2021/03/11 00:17:45;;;;;;;21.90;14.13;;;8.10;86.20;;;;;;5055187;28;20021;-78
2021/03/11 00:20:14;;;;;;;19.50;13.30;;;8.10;86.20;;;;;;5038232;28;20033;-77
2021/03/11 00:22:40;;;;;;;20.63;12.73;;;8.10;86.20;;;;;;5054950;28;20529;-78
2021/03/11 00:25:12;;;;;;;20.23;12.50;;;8.10;86.40;;;;;;5038828;28;20032;-78
2021/03/11 00:27:38;;;;;;;20.25;12.65;;;8.10;86.30;;;;;;5056458;28;20025;-78
2021/03/11 00:30:06;;;;;;;21.92;13.00;;;8.10;86.60;;;;;;5056649;28;20030;-78
2021/03/11 00:32:32;;;;;;;22.30;13.75;;;8.10;86.60;;;;;;5038568;28;20040;-78
2021/03/11 00:34:58;;;;;;;20.48;13.60;;;8.10;86.80;;;;;;5056321;28;20033;-78
2021/03/11 00:37:24;;;;;;;21.20;12.98;;;8.10;87.00;;;;;;5056050;28;20029;-80
2021/03/11 00:39:49;;;;;;;20.38;13.63;;;8.10;87.00;;;;;;5062662;28;20167;-80
2021/03/11 00:42:15;;;;;;;20.65;12.30;;;8.10;87.00;;;;;;5035168;28;20495;-80
2021/03/11 00:44:41;;;;;;;19.30;13.43;;;8.00;86.90;;;;;;5037994;28;20037;-80
2021/03/11 00:47:07;;;;;;;22.95;12.75;;;8.00;87.00;;;;;;5038047;28;20535;-80
2021/03/11 00:49:33;;;;;;;21.02;12.38;;;8.10;86.70;;;;;;5054754;28;20078;-80
2021/03/11 00:52:02;;;;;;;21.85;13.13;;;8.10;86.70;;;;;;5054627;28;20363;-79
2021/03/11 00:54:28;;;;;;;20.20;12.77;;;8.10;86.50;;;;;;5037498;28;20144;-80
2021/03/11 00:56:54;;;;;;;19.48;12.82;;;8.10;86.40;;;;;;5037944;28;20116;-80
2021/03/11 00:59:26;;;;;;;18.20;11.75;;;8.10;86.20;;;;;;5038088;28;20083;-80
2021/03/11 01:01:51;;;;;;;21.20;12.60;;;8.20;86.00;;;;;;5037544;28;20048;-80
2021/03/11 01:04:17;;;;;;;17.95;12.50;;;8.20;85.90;;;;;;5037923;28;20021;-80
2021/03/11 01:06:43;;;;;;;18.83;12.40;;;8.20;85.80;;;;;;5037774;28;20029;-80
2021/03/11 01:09:08;;;;;;;18.23;11.75;;;8.10;85.80;;;;;;5037498;28;20021;-80
2021/03/11 01:11:34;;;;;;;20.40;13.35;;;8.20;85.80;;;;;;5054505;28;20504;-80
2021/03/11 01:14:00;;;;;;;20.30;12.75;;;8.10;85.80;;;;;;5054271;28;20124;-80
2021/03/11 01:16:26;;;;;;;17.50;11.80;;;8.20;85.70;;;;;;5054167;28;20036;-80
2021/03/11 01:18:51;;;;;;;20.05;13.00;;;8.20;85.60;;;;;;5054262;28;20025;-80
2021/03/11 01:21:18;;;;;;;20.33;11.70;;;8.20;85.60;;;;;;5053372;28;20025;-80
2021/03/11 01:23:43;;;;;;;18.67;11.85;;;8.20;85.30;;;;;;5054064;28;20029;-81
2021/03/11 01:26:09;;;;;;;17.98;11.93;;;8.20;85.30;;;;;;5053933;28;20109;-81
2021/03/11 01:28:35;;;;;;;21.50;12.65;;;8.20;85.30;;;;;;5054191;28;20045;-80
2021/03/11 01:31:00;;;;;;;18.70;11.95;;;8.20;85.40;;;;;;5037437;28;20045;-80
2021/03/11 01:33:26;;;;;;;22.40;12.68;;;8.20;85.30;;;;;;5053838;28;20040;-80
2021/03/11 01:35:51;;;;;;;17.98;11.48;;;8.20;85.10;;;;;;5020719;28;20393;-81
2021/03/11 01:38:17;;;;;;;17.77;10.93;;;8.20;85.20;;;;;;5054796;28;20095;-80
2021/03/11 01:40:43;;;;;;;17.65;11.90;;;8.20;85.20;;;;;;5054993;28;20055;-79
2021/03/11 01:43:08;;;;;;;16.05;10.88;;;8.20;85.30;;;;;;5021036;28;20469;-81
2021/03/11 01:45:34;;;;;;;18.38;11.27;;;8.20;85.30;;;;;;5054871;28;20478;-80
2021/03/11 01:48:00;;;;;;;17.50;10.80;;;8.30;85.20;;;;;;5054875;28;20029;-80
2021/03/11 01:50:26;;;;;;;17.40;11.45;;;8.30;85.30;;;;;;5053836;28;20029;-78
2021/03/11 01:52:52;;;;;;;14.63;9.40;;;8.20;85.40;;;;;;5036594;28;20436;-78
2021/03/11 01:55:19;;;;;;;17.92;11.23;;;8.30;86.00;;;;;;5053775;28;20040;-78
2021/03/11 01:57:48;;;;;;;18.42;10.98;;;8.30;85.50;;;;;;5054743;28;20033;-78
2021/03/11 02:00:14;;;;;;;14.57;10.10;;;8.30;85.60;;;;;;5053411;28;20116;-77
2021/03/11 02:02:44;;;;;;;16.73;10.63;;;8.20;85.50;;;;;;5054701;28;20021;-78
2021/03/11 02:05:13;;;;;;;16.75;10.55;;;8.30;85.60;;;;;;5053109;28;20448;-78
2021/03/11 02:07:38;;;;;;;15.15;9.70;;;8.30;85.90;;;;;;5053471;28;20104;-77
2021/03/11 02:10:06;;;;;;;12.63;8.85;;;8.30;86.00;;;;;;5053500;28;20119;-77
2021/03/11 02:12:36;;;;;;;15.60;10.13;;;8.30;86.10;;;;;;5036925;28;20036;-77
2021/03/11 02:15:07;;;;;;;15.55;9.60;;;8.30;86.30;;;;;;5053324;28;20025;-77
2021/03/11 02:17:56;;;;;;;13.82;8.85;;;8.30;86.30;;;;;;5053242;28;20051;-77
2021/03/11 02:20:35;;;;;;;13.73;8.85;;;8.30;86.70;;;;;;5046598;28;20029;-77
2021/03/11 02:23:28;;;;;;;16.35;9.23;;;8.30;86.80;;;;;;5052782;28;20061;-77
2021/03/11 02:26:23;;;;;;;12.57;8.63;;;8.30;86.90;;;;;;5052949;28;20035;-77
2021/03/11 02:29:10;;;;;;;11.43;7.95;;;8.30;87.00;;;;;;5049601;28;20040;-77
2021/03/11 02:31:38;;;;;;;12.30;7.60;;;8.30;87.00;;;;;;5053953;28;20029;-77
2021/03/11 02:34:10;;;;;;;13.90;8.52;;;8.30;86.90;;;;;;5053142;28;20067;-77
2021/03/11 02:36:37;;;;;;;11.93;8.15;;;8.30;87.70;;;;;;5052429;28;20124;-77
2021/03/11 02:39:06;;;;;;;11.00;7.30;;;8.40;87.20;;;;;;5036381;28;20025;-77
2021/03/11 02:41:33;;;;;;;11.43;7.65;;;8.40;87.30;;;;;;5052405;28;20032;-78
2021/03/11 02:43:59;;;;;;;10.30;7.40;;;8.40;87.40;;;;;;5035958;28;20029;-77
2021/03/11 02:46:25;;;;;;;11.02;7.70;;;8.40;87.70;;;;;;5052322;28;20443;-77
2021/03/11 02:48:52;;;;;;;10.23;6.88;;;8.40;87.80;;;;;;5052638;28;20010;-77
2021/03/11 02:51:20;;;;;;;12.05;7.90;;;8.40;88.00;;;;;;5052391;28;20036;-77
2021/03/11 02:53:46;;;;;;;10.43;7.75;;;8.40;88.40;;;;;;5035653;28;20103;-77
2021/03/11 02:56:13;;;;;;;11.93;7.50;;;8.30;88.80;;;;;;5035853;28;20029;-80
2021/03/11 02:58:40;;;;;;;11.55;7.68;;;8.30;89.20;;;;;;5052282;28;20033;-81
2021/03/11 03:01:13;;;;;;;9.93;7.18;;;8.30;89.40;;;;;;5052265;28;20117;-80
2021/03/11 03:03:40;;;;;;;10.07;7.38;;;8.30;89.80;;;;;;5052218;28;20029;-80
2021/03/11 03:06:06;;;;;;;10.80;7.18;;;8.20;89.80;;;;;;5052489;28;20029;-80
2021/03/11 03:08:32;;;;;;;12.00;7.20;;;8.30;90.00;;;;;;5035704;28;20033;-79
2021/03/11 03:10:59;;;;;;;8.38;6.45;;;8.30;90.10;;;;;;5035870;28;20025;-80
2021/03/11 03:13:25;;;;;;;10.23;6.80;;;8.30;90.20;;;;;;5053548;28;20020;-80
2021/03/11 03:15:55;;;;;;;10.15;7.28;;;8.30;90.20;;;;;;5053402;28;20385;-80
2021/03/11 03:18:22;;;;;;;8.63;6.53;;;8.20;90.30;;;;;;5052236;28;20114;-80
2021/03/11 03:20:49;;;;;;;10.05;7.38;;;8.30;90.20;;;;;;5035264;28;20044;-80
2021/03/11 03:23:15;;;;;;;11.52;7.45;;;8.30;90.40;;;;;;5052107;28;20032;-80
2021/03/11 03:25:40;;;;;;;10.50;7.55;;;8.30;90.50;;;;;;5052071;28;20055;-80
2021/03/11 03:28:06;;;;;;;9.45;7.35;;;8.30;90.40;;;;;;5051952;28;20475;-81
2021/03/11 03:30:32;;;;;;;10.60;7.93;;;8.30;90.50;;;;;;5019130;28;20040;-80
2021/03/11 03:32:57;;;;;;;12.57;7.68;;;8.30;90.60;;;;;;5053016;28;20029;-80
2021/03/11 03:35:23;;;;;;;9.95;7.40;;;8.30;90.70;;;;;;5051909;28;20032;-80
2021/03/11 03:37:51;;;;;;;9.48;7.63;;;8.30;90.70;;;;;;5053186;28;20028;-80
2021/03/11 03:40:18;;;;;;;11.70;8.30;;;8.30;90.80;;;;;;5035535;28;20036;-80
2021/03/11 03:42:54;;;;;;;11.25;7.90;;;8.30;90.70;;;;;;5052062;28;20040;-80
2021/03/11 03:45:33;;;;;;;10.25;7.80;;;8.30;90.80;;;;;;5056009;28;20048;-80
2021/03/11 03:48:03;;;;;;;13.55;8.40;;;8.30;90.90;;;;;;5058598;28;20025;-80
2021/03/11 03:50:30;;;;;;;10.27;8.10;;;8.30;90.80;;;;;;5058553;28;20029;-80
2021/03/11 03:52:57;;;;;;;10.50;8.38;;;8.40;90.90;;;;;;5058374;28;20358;-81
2021/03/11 03:55:26;;;;;;;11.52;8.32;;;8.40;90.80;;;;;;5058315;28;20059;-80
2021/03/11 03:57:55;;;;;;;13.75;8.68;;;8.40;90.80;;;;;;5067023;28;20120;-80
2021/03/11 04:00:22;;;;;;;11.10;8.35;;;8.50;91.00;;;;;;5079581;28;20107;-80
2021/03/11 04:02:53;;;;;;;13.45;9.30;;;8.50;90.70;;;;;;5055132;28;20116;-80
2021/03/11 04:05:20;;;;;;;13.75;9.27;;;8.50;90.70;;;;;;5079778;28;20093;-80
2021/03/11 04:07:46;;;;;;;12.82;8.82;;;8.50;90.70;;;;;;5071835;28;20551;-80
2021/03/11 04:10:13;;;;;;;13.40;10.35;;;8.50;90.60;;;;;;5058273;28;20074;-80
2021/03/11 04:12:40;;;;;;;12.32;9.00;;;8.60;90.60;;;;;;5058109;28;20029;-80
2021/03/11 04:15:07;;;;;;;13.50;9.20;;;8.60;90.50;;;;;;5041828;28;20033;-80
2021/03/11 04:17:33;;;;;;;13.10;10.07;;;8.70;90.50;;;;;;5041657;28;20033;-80
2021/03/11 04:20:03;;;;;;;14.77;9.70;;;8.70;90.50;;;;;;5041529;28;20488;-80
2021/03/11 04:22:29;;;;;;;12.23;8.73;;;8.70;90.50;;;;;;5058311;28;20025;-80
2021/03/11 04:24:56;;;;;;;12.30;9.02;;;8.70;90.40;;;;;;5041188;28;20485;-80
2021/03/11 04:27:22;;;;;;;13.02;8.63;;;8.80;90.40;;;;;;5040955;28;20037;-80
2021/03/11 04:29:49;;;;;;;11.93;9.15;;;8.80;90.40;;;;;;5041274;28;20078;-80
2021/03/11 04:32:15;;;;;;;12.73;8.93;;;8.80;90.30;;;;;;5024933;28;20374;-80
2021/03/11 04:34:41;;;;;;;13.23;9.65;;;8.80;90.30;;;;;;5041297;28;20393;-80
2021/03/11 04:37:07;;;;;;;12.15;9.27;;;8.90;90.30;;;;;;5057777;28;20040;-80
2021/03/11 04:39:34;;;;;;;13.85;9.70;;;8.90;90.30;;;;;;5057805;28;20029;-80
2021/03/11 04:42:00;;;;;;;14.52;9.75;;;8.90;90.30;;;;;;5041307;28;20037;-80
2021/03/11 04:44:27;;;;;;;12.90;9.48;;;8.90;90.30;;;;;;5057516;28;20025;-80
2021/03/11 04:46:54;;;;;;;14.43;9.35;;;9.00;90.40;;;;;;5057876;28;20438;-80
2021/03/11 04:49:25;;;;;;;15.15;10.93;;;9.00;90.30;;;;;;5057878;28;20021;-80
2021/03/11 04:51:51;;;;;;;13.15;9.65;;;9.00;90.40;;;;;;5059113;28;20079;-80
2021/03/11 04:54:18;;;;;;;13.65;10.27;;;9.00;90.60;;;;;;5058571;28;20119;-80
2021/03/11 04:56:45;;;;;;;14.80;11.10;;;9.00;90.70;;;;;;5056316;28;20025;-80
2021/03/11 04:59:26;;;;;;;14.88;11.13;;;9.00;90.80;;;;;;5053955;28;20083;-80
2021/03/11 05:01:55;;;;;;;16.30;11.25;;;9.00;91.00;;;;;;5055442;28;20048;-80
2021/03/11 05:04:21;;;;;;;16.88;10.63;;;8.90;91.10;;;;;;5055586;28;20021;-80
2021/03/11 05:06:47;;;;;;;14.30;10.10;;;8.90;91.30;;;;;;5038118;28;20086;-80
2021/03/11 05:09:13;;;;;;;13.60;9.80;;;8.90;91.40;;;;;;5054482;28;20103;-80
2021/03/11 05:11:38;;;;;;;13.65;10.15;;;8.90;91.40;;;;;;5054684;28;20039;-81
2021/03/11 05:14:04;;;;;;;15.55;10.45;;;8.90;91.40;;;;;;5037668;28;20120;-80
2021/03/11 05:16:29;;;;;;;15.45;10.18;;;8.90;91.40;;;;;;5055410;28;20025;-80
2021/03/11 05:18:55;;;;;;;15.13;10.45;;;9.00;91.50;;;;;;5037910;28;20450;-80
2021/03/11 05:21:21;;;;;;;15.63;10.02;;;9.00;91.50;;;;;;5021337;28;20056;-80
2021/03/11 05:23:47;;;;;;;13.55;9.65;;;9.00;91.50;;;;;;5055583;28;20025;-80
2021/03/11 05:26:13;;;;;;;13.27;9.32;;;9.00;91.50;;;;;;5054257;28;20111;-81
2021/03/11 05:28:38;;;;;;;13.32;9.07;;;9.00;91.80;;;;;;5037593;28;20512;-80
2021/03/11 05:31:04;;;;;;;11.75;8.43;;;9.00;91.50;;;;;;5053939;28;20028;-80
2021/03/11 05:33:30;;;;;;;11.25;8.38;;;9.00;91.50;;;;;;5037545;28;20037;-81
2021/03/11 05:35:55;;;;;;;10.52;8.00;;;9.00;91.80;;;;;;5037601;28;20044;-81
2021/03/11 05:38:21;;;;;;;11.48;8.32;;;9.00;91.50;;;;;;5054075;28;20100;-80
2021/03/11 05:40:52;;;;;;;10.18;7.88;;;9.00;91.40;;;;;;5037258;28;20037;-81
2021/03/11 05:43:18;;;;;;;10.82;7.88;;;9.00;91.50;;;;;;5053768;28;20044;-80
2021/03/11 05:45:44;;;;;;;9.82;7.43;;;9.00;91.50;;;;;;5053846;28;20064;-80
2021/03/11 05:48:14;;;;;;;9.80;7.78;;;9.10;91.50;;;;;;5037128;28;20474;-80
2021/03/11 05:50:41;;;;;;;10.07;7.60;;;9.10;91.50;;;;;;5053739;28;20037;-80
2021/03/11 05:53:06;;;;;;;10.82;7.93;;;9.20;91.50;;;;;;5053435;28;20160;-80
2021/03/11 05:55:32;;;;;;;11.80;7.25;;;9.20;91.50;;;;;;5053645;28;20508;-81
2021/03/11 05:58:00;;;;;;;11.98;7.60;;;9.20;91.40;;;;;;5037274;28;20064;-81
2021/03/11 06:00:26;;;;;;;9.88;7.20;;;9.20;91.30;;;;;;5053483;28;20036;-81
2021/03/11 06:03:00;;;;;;;9.98;7.15;;;9.30;91.30;;;;;;5054568;28;20033;-80
2021/03/11 06:05:25;;;;;;;10.80;7.63;;;9.30;91.30;;;;;;5054806;28;20018;-80
2021/03/11 06:07:51;;;;;;;9.00;6.78;;;9.30;91.50;;;;;;5036753;28;20066;-80
2021/03/11 06:10:20;;;;;;;11.73;7.18;;;9.40;91.20;;;;;;5053428;28;20045;-80
2021/03/11 06:12:47;;;;;;;9.83;7.10;;;9.40;91.10;;;;;;5053216;28;20166;-80
2021/03/11 06:15:19;;;;;;;10.10;6.97;;;9.40;91.10;;;;;;5036968;28;20271;-81
2021/03/11 06:17:50;;;;;;;10.07;7.20;;;9.40;91.10;;;;;;5054641;28;20029;-81
2021/03/11 06:20:15;;;;;;;8.75;7.03;;;9.40;91.00;;;;;;5054263;28;20559;-81
2021/03/11 06:22:41;;;;;;;8.43;6.78;;;9.50;91.00;;;;;;5054021;28;20057;-81
2021/03/11 06:25:08;;;;;;;9.43;6.70;;;9.50;91.00;;;;;;5052913;28;20108;-81
2021/03/11 06:27:33;;;;;;;9.77;7.10;;;9.50;91.00;;;;;;5053399;28;20025;-81
2021/03/11 06:29:59;;;;;;;9.60;6.20;;;9.50;90.90;;;;;;5053617;28;20087;-81
2021/03/11 06:32:26;;;;;;;9.10;6.75;;;9.60;90.90;;;;;;5053971;28;20036;-82
2021/03/11 06:34:52;;;;;;;10.65;7.07;;;9.60;90.90;;;;;;5053002;28;20457;-81
2021/03/11 06:37:36;;;;;;;8.65;6.55;;;9.60;90.90;;;;;;5052603;28;20052;-82
2021/03/11 06:40:22;;;;;;;10.25;6.70;;;9.60;90.90;;;;;;5052242;28;20108;-81
2021/03/11 06:42:49;;;;;;;10.80;7.10;;;9.70;91.10;;;;;;5052408;28;20119;-81
2021/03/11 06:45:21;;;;;;;9.60;7.90;;;9.60;91.20;;;;;;5053727;28;20057;-80
2021/03/11 06:47:49;;;;;;;10.93;7.68;;;9.60;91.50;;;;;;5052190;28;20032;-81
2021/03/11 06:50:14;;;;;;;13.02;7.82;;;9.60;91.70;;;;;;5053755;28;20047;-80
2021/03/11 06:52:58;;;;;;;13.98;8.52;;;9.50;91.90;;;;;;5052398;28;20433;-81
2021/03/11 06:55:24;;;;;;;11.23;7.88;;;9.50;92.00;;;;;;5052512;28;20568;-80
2021/03/11 06:57:50;;;;;;;12.07;7.10;;;9.50;92.00;;;;;;5035807;28;20124;-80
2021/03/11 07:00:21;;;;;;;16.05;8.57;;;9.50;92.10;;;;;;5053678;28;20035;-80
2021/03/11 07:02:57;;;;;;;12.27;8.15;;;9.50;92.40;;;;;;5052174;28;20032;-80
2021/03/11 07:05:41;;;;;;;12.68;8.10;;;9.50;92.40;;;;;;5053487;28;20091;-80
2021/03/11 07:08:16;;;;;;;12.10;8.27;;;9.50;92.40;;;;;;5073281;28;20404;-80
2021/03/11 07:10:44;;;;;;;10.98;8.50;;;9.50;92.50;;;;;;5072388;28;20032;-80
2021/03/11 07:13:11;;;;;;;15.55;8.80;;;9.50;92.60;;;;;;5072426;28;20119;-81
2021/03/11 07:15:38;;;;;;;14.43;8.63;;;9.50;92.60;;;;;;5055790;28;20055;-81
2021/03/11 07:18:19;;;;;;;13.85;8.80;;;9.50;92.70;;;;;;5072216;28;20040;-80
2021/03/11 07:20:45;;;;;;;17.77;9.65;;;9.60;92.70;;;;;;5060377;28;20044;-81
2021/03/11 07:23:12;;;;;;;17.27;9.80;;;9.60;92.80;;;;;;5053455;28;20373;-80
2021/03/11 07:25:45;;;;;;;11.35;7.90;;;9.60;93.00;;;;;;5052061;28;20048;-81
2021/03/11 07:28:22;;;;;;;12.38;8.45;;;9.80;93.10;;;;;;5053231;28;20025;-79
2021/03/11 07:30:56;;;;;;;10.85;8.00;;;9.90;93.00;;;;;;5053168;28;20104;-80
2021/03/11 07:33:26;;;;;;;11.90;7.78;;;10.00;92.80;;;;;;5051880;28;20064;-80
2021/03/11 07:35:57;;;;;;;12.23;7.93;;;10.00;92.90;;;;;;5053184;28;20110;-80
2021/03/11 07:38:25;;;;;;;9.75;7.82;;;10.10;92.50;;;;;;5051843;28;20028;-80
2021/03/11 07:40:53;;;;;;;14.30;8.00;;;10.10;92.40;;;;;;5051938;28;20478;-80
2021/03/11 07:43:20;;;;;;;11.07;7.22;;;10.20;92.30;;;;;;5051718;28;20025;-81
2021/03/11 07:45:46;;;;;;;10.88;7.80;;;10.20;92.30;;;;;;5051961;28;20435;-79
2021/03/11 07:48:13;;;;;;;11.10;6.38;;;10.20;92.30;;;;;;5051697;28;20021;-80
2021/03/11 07:50:43;;;;;;;13.80;7.43;;;10.30;92.20;;;;;;5035315;28;20037;-79
2021/03/11 07:53:09;;;;;;;12.35;7.28;;;10.30;92.30;;;;;;5051220;28;20132;-80
2021/03/11 07:55:36;;;;;;;12.13;6.53;;;10.30;92.30;;;;;;5052897;28;20683;-80
2021/03/11 07:58:16;;;;;;;11.32;6.22;;;10.40;92.30;;;;;;5051435;28;20060;-80
2021/03/11 08:00:42;;;;;;;12.85;5.85;;;10.40;92.30;;;;;;5052874;28;20031;-80
2021/03/11 08:03:25;;;;;;;12.30;5.43;;;10.40;92.20;;;;;;5035021;28;20125;-80
2021/03/11 08:05:51;;;;;;;14.43;5.50;;;10.40;92.30;;;;;;5051737;28;20473;-80
2021/03/11 08:08:28;;;;;;;10.88;4.75;;;10.40;92.30;;;;;;5035181;28;20036;-80
2021/03/11 08:10:56;;;;;;;12.63;4.63;;;10.50;92.30;;;;;;5051638;28;20024;-80
2021/03/11 08:13:41;;;;;;;12.82;5.10;;;10.50;92.20;;;;;;5051423;28;20056;-80
2021/03/11 08:16:10;;;;;;;8.60;5.30;;;10.60;92.30;;;;;;5052340;28;20045;-80
2021/03/11 08:18:36;;;;;;;11.55;6.20;;;10.60;92.20;;;;;;5052640;28;20035;-80
2021/03/11 08:21:06;;;;;;;9.40;6.35;;;10.70;92.20;;;;;;5052506;28;20021;-80
2021/03/11 08:23:33;;;;;;;13.23;6.05;;;10.70;92.30;;;;;;5035607;28;20029;-79
2021/03/11 08:26:00;;;;;;;9.15;6.00;;;10.80;92.20;;;;;;5052631;28;20032;-79
2021/03/11 08:28:29;;;;;;;9.02;5.53;;;10.90;92.10;;;;;;5052624;28;20025;-79
2021/03/11 08:31:03;;;;;;;11.87;6.50;;;10.90;92.10;;;;;;5052531;28;20373;-79
2021/03/11 08:33:29;;;;;;;12.13;5.50;;;11.00;91.90;;;;;;5055818;28;20336;-79
2021/03/11 08:35:56;;;;;;;10.98;5.90;;;11.00;91.80;;;;;;5056589;28;20022;-80
2021/03/11 08:38:25;;;;;;;13.82;6.03;;;11.10;91.80;;;;;;5056300;28;20112;-80
2021/03/11 08:40:55;;;;;;;11.13;4.50;;;11.10;91.80;;;;;;5060557;28;20107;-79
2021/03/11 08:43:39;;;;;;;14.20;4.07;;;11.10;91.60;;;;;;5050192;28;20107;-79
2021/03/11 08:46:06;;;;;;;14.00;3.85;;;11.10;91.00;;;;;;5054899;28;20107;-80
2021/03/11 08:48:58;;;;;;;12.60;2.90;;;11.10;90.60;;;;;;5054998;28;20074;-80
2021/03/11 08:51:23;;;;;;;16.63;2.72;;;11.20;89.70;;;;;;5054833;28;20569;-80
2021/03/11 08:54:00;;;;;;;9.40;2.05;;;11.20;87.50;;;;;;5055409;28;20436;-77
2021/03/11 08:56:25;;;;;;;15.30;3.35;;;11.20;87.60;;;;;;5068603;28;20037;-77
2021/03/11 08:58:59;;;;;;;9.43;2.30;;;11.40;88.70;;;;;;5055651;28;20047;-81
2021/03/11 09:01:35;;;;;;;11.40;2.53;;;11.60;87.40;;;;;;5037367;28;20063;-80
2021/03/11 09:04:05;;;;;;;16.52;3.30;;;11.70;84.70;;;;;;5054738;28;20107;-81
2021/03/11 09:06:49;;;;;;;9.65;2.30;;;11.80;83.70;;;;;;5055611;28;20099;-81
2021/03/11 09:09:15;;;;;;;15.13;3.25;;;12.00;84.20;;;;;;5054212;28;21890;-80
2021/03/11 09:11:55;;;;;;;14.05;2.70;;;12.20;82.90;;;;;;5037274;28;20037;-81
2021/03/11 09:14:22;;;;;;;15.20;2.70;;;12.40;81.50;;;;;;5055577;28;20024;-82
2021/03/11 09:16:48;;;;;;;26.48;3.78;;;12.50;79.60;;;;;;5021660;28;20430;-81
2021/03/11 09:19:14;;;;;;;21.35;3.72;;;12.60;77.70;;;;;;5055608;28;20051;-81
2021/03/11 09:21:40;;;;;;;27.67;4.07;;;12.80;75.70;;;;;;5054516;28;20056;-81
2021/03/11 09:24:14;;;;;;;23.00;3.90;;;12.90;74.50;;;;;;5054171;28;20474;-81
2021/03/11 09:26:40;;;;;;;26.05;3.95;;;13.00;73.70;;;;;;5054412;28;20504;-81
2021/03/11 09:29:06;;;;;;;26.08;3.97;;;13.10;73.00;;;;;;5054375;28;20053;-81
2021/03/11 09:31:31;;;;;;;28.67;4.35;;;13.20;73.80;;;;;;5055604;28;20470;-81
2021/03/11 09:34:02;;;;;;;23.05;3.72;;;13.40;73.10;;;;;;5054159;28;20033;-81
2021/03/11 09:36:28;;;;;;;26.40;4.30;;;13.50;71.70;;;;;;5055424;28;20127;-81
2021/03/11 09:39:07;;;;;;;32.05;5.20;;;13.60;69.40;;;;;;5055085;28;20056;-81
2021/03/11 09:41:35;;;;;;;;;;;13.70;67.10;;;;;;5054174;28;20029;-81
2021/03/11 09:44:06;;;;;;;34.25;4.50;;;13.70;66.70;;;;;;5054405;28;19916;-81
2021/03/11 09:46:32;;;;;;;28.27;4.03;;;13.80;66.30;;;;;;5053894;28;20049;-81
2021/03/11 09:48:58;;;;;;;25.52;3.85;;;13.90;66.20;;;;;;5037149;28;20489;-81
2021/03/11 09:51:31;;;;;;;21.48;4.47;;;13.90;66.40;;;;;;5053799;28;20060;-81
2021/03/11 09:54:04;;;;;;;24.08;4.50;;;14.00;67.10;;;;;;5053762;28;20106;-81
2021/03/11 09:56:41;;;;;;;21.52;3.90;;;14.10;66.20;;;;;;5054901;28;20029;-81
2021/03/11 09:59:09;;;;;;;20.13;3.67;;;14.20;66.80;;;;;;5053029;28;20554;-81
2021/03/11 10:01:40;;;;;;;25.30;5.10;;;14.20;66.10;;;;;;5054785;28;20506;-81
2021/03/11 10:04:23;;;;;;;19.88;3.33;;;14.30;66.80;;;;;;5054852;28;20040;-82
2021/03/11 10:06:53;;;;;;;14.98;3.55;;;14.50;65.40;;;;;;5054595;28;20100;-81
2021/03/11 10:09:20;;;;;;;16.77;3.17;;;14.60;62.40;;;;;;5054751;28;20032;-82
2021/03/11 10:11:53;;;;;;;17.75;3.05;;;14.60;59.60;;;;;;5053563;28;20432;-82
2021/03/11 10:14:25;;;;;;;14.70;2.72;;;14.60;59.00;;;;;;5053095;28;20127;-80
2021/03/11 10:16:53;;;;;;;18.45;3.20;;;14.50;58.30;;;;;;5054599;28;20091;-80
2021/03/11 10:19:32;;;;;;;21.92;3.42;;;14.40;58.60;;;;;;5047442;28;20037;-77
2021/03/11 10:22:03;;;;;;;21.75;3.72;;;14.30;58.60;;;;;;5048447;28;20060;-77
2021/03/11 10:24:48;;;;;;;23.70;3.63;;;14.20;58.60;;;;;;5048904;28;20036;-77
2021/03/11 10:27:32;;;;;;;19.58;3.33;;;14.30;58.70;;;;;;5033118;28;20021;-77
2021/03/11 10:30:12;;;;;;;27.60;3.55;;;14.30;57.60;;;;;;5049242;28;20021;-76
2021/03/11 10:32:41;;;;;;;26.40;3.88;;;14.30;57.60;;;;;;5050017;28;20047;-78
2021/03/11 10:35:08;;;;;;;15.93;3.05;;;14.30;56.60;;;;;;5064151;28;20034;-78
2021/03/11 10:37:40;;;;;;;20.38;3.03;;;14.30;56.70;;;;;;5065985;28;20054;-79
2021/03/11 10:40:12;;;;;;;17.50;3.58;;;14.50;57.10;;;;;;5050072;28;20024;-78
2021/03/11 10:42:50;;;;;;;23.08;3.72;;;14.70;57.30;;;;;;5048806;28;20074;-79
2021/03/11 10:45:19;;;;;;;21.52;3.78;;;14.90;56.50;;;;;;5047563;28;20047;-78
2021/03/11 10:47:58;;;;;;;;;;;15.10;56.10;;;;;;5049386;28;20457;-78
2021/03/11 10:50:24;;;;;;;19.65;3.33;;;15.20;56.40;;;;;;5049589;28;19912;-78
2021/03/11 10:52:52;;;;;;;19.70;3.70;;;15.20;56.20;;;;;;5047445;28;20025;-78
2021/03/11 10:55:35;;;;;;;19.50;3.60;;;15.20;54.30;;;;;;5048974;28;20049;-78
2021/03/11 10:58:03;;;;;;;20.45;3.78;;;15.10;55.10;;;;;;5048641;28;20036;-78
2021/03/11 11:00:29;;;;;;;24.42;3.95;;;15.00;54.90;;;;;;5049177;28;20043;-78
2021/03/11 11:02:57;;;;;;;29.92;3.97;;;14.90;54.70;;;;;;5048546;28;20025;-78
2021/03/11 11:05:24;;;;;;;24.15;3.47;;;14.90;54.50;;;;;;5049711;28;20112;-78
2021/03/11 11:07:50;;;;;;;26.63;3.58;;;14.80;54.30;;;;;;5032058;28;20099;-79
2021/03/11 11:10:21;;;;;;;19.67;3.08;;;14.80;54.90;;;;;;5049729;28;20067;-79
2021/03/11 11:12:47;;;;;;;18.83;4.25;;;14.70;53.10;;;;;;5048217;28;20475;-79
2021/03/11 11:15:14;;;;;;;18.77;3.22;;;14.70;55.40;;;;;;5049986;28;20009;-79
2021/03/11 11:17:40;;;;;;;19.90;3.78;;;14.80;53.90;;;;;;5065091;28;20536;-78
2021/03/11 11:20:07;;;;;;;20.30;3.65;;;14.80;54.10;;;;;;5032190;28;20025;-78
2021/03/11 11:22:34;;;;;;;19.85;3.40;;;14.90;54.20;;;;;;5049614;28;20021;-78
2021/03/11 11:25:00;;;;;;;15.60;2.80;;;14.90;55.30;;;;;;5047802;28;20032;-77
2021/03/11 11:27:26;;;;;;;22.77;3.60;;;14.90;56.00;;;;;;5048711;28;20468;-77
2021/03/11 11:29:52;;;;;;;23.25;4.15;;;14.90;55.70;;;;;;5051624;28;20107;-78
2021/03/11 11:32:17;;;;;;;24.63;4.47;;;15.00;56.00;;;;;;5051952;28;20055;-77
2021/03/11 11:34:43;;;;;;;21.77;3.50;;;15.00;55.80;;;;;;5018696;28;20025;-78
2021/03/11 11:37:09;;;;;;;19.15;3.65;;;15.00;55.10;;;;;;5051831;28;20032;-78
2021/03/11 11:39:34;;;;;;;20.77;2.97;;;15.00;55.90;;;;;;5052859;28;20025;-78
2021/03/11 11:42:00;;;;;;;29.80;3.83;;;15.10;55.80;;;;;;5051902;28;20478;-78
2021/03/11 11:44:26;;;;;;;13.95;2.50;;;15.10;55.10;;;;;;5035032;28;20029;-79
2021/03/11 11:46:51;;;;;;;17.67;3.10;;;15.00;55.00;;;;;;5035294;28;20071;-80
2021/03/11 11:49:17;;;;;;;12.95;2.28;;;14.90;53.60;;;;;;5034823;28;20489;-78
2021/03/11 11:51:43;;;;;;;16.55;2.40;;;14.80;54.20;;;;;;5051407;28;20558;-78
2021/03/11 11:54:09;;;;;;;14.30;2.35;;;14.80;55.00;;;;;;5050509;28;20501;-78
2021/03/11 11:56:35;;;;;;;15.65;2.58;;;14.70;53.40;;;;;;5051304;28;20389;-78
2021/03/11 11:59:00;;;;;;;13.45;3.20;;;14.60;53.70;;;;;;5051264;28;20037;-78
2021/03/11 12:01:26;;;;;;;20.38;2.80;;;14.50;53.60;;;;;;5052635;28;20108;-79
2021/03/11 12:03:52;;;;;;;23.35;3.20;;;14.50;54.50;;;;;;5051878;28;20048;-79
2021/03/11 12:06:19;;;;;;;19.73;3.13;;;14.40;55.30;;;;;;5037238;28;20029;-78
2021/03/11 12:08:44;;;;;;;17.80;2.70;;;14.50;55.60;;;;;;5056953;28;20075;-78
2021/03/11 12:11:10;;;;;;;12.68;2.60;;;14.50;56.20;;;;;;5056977;28;20428;-78
2021/03/11 12:13:36;;;;;;;18.65;3.03;;;14.60;56.00;;;;;;5055506;28;20033;-78
2021/03/11 12:16:01;;;;;;;15.18;2.92;;;14.60;54.50;;;;;;5055439;28;20032;-78
2021/03/11 12:18:27;;;;;;;14.95;2.90;;;14.60;55.80;;;;;;5055428;28;20075;-78
2021/03/11 12:20:53;;;;;;;16.50;3.45;;;14.60;55.70;;;;;;5055653;28;20035;-78
2021/03/11 12:23:18;;;;;;;20.27;3.55;;;14.60;55.30;;;;;;5038774;28;20030;-78
2021/03/11 12:25:44;;;;;;;21.88;3.10;;;14.50;55.70;;;;;;5055212;28;20470;-78
2021/03/11 12:28:10;;;;;;;18.88;3.40;;;14.50;56.00;;;;;;5038674;28;20481;-78
2021/03/11 12:30:35;;;;;;;18.08;3.55;;;14.50;56.50;;;;;;5055206;28;20385;-78
2021/03/11 12:33:01;;;;;;;16.15;3.20;;;14.40;56.80;;;;;;5056430;28;20029;-78
2021/03/11 12:35:27;;;;;;;17.63;3.40;;;14.30;56.70;;;;;;5056517;28;20405;-79
2021/03/11 12:37:54;;;;;;;19.98;3.28;;;14.20;59.90;;;;;;5055144;28;20025;-78
2021/03/11 12:40:20;;;;;;;20.35;3.20;;;14.20;59.00;;;;;;5055532;28;20405;-79
2021/03/11 12:42:47;;;;;;;28.38;3.60;;;14.10;58.40;;;;;;5038941;28;20370;-78
2021/03/11 12:45:17;;;;;;;15.18;3.00;;;14.00;57.10;;;;;;5038633;28;20144;-78
2021/03/11 12:47:43;;;;;;;15.73;2.92;;;13.90;58.10;;;;;;5055130;28;20048;-77
2021/03/11 12:50:10;;;;;;;12.30;2.85;;;14.10;57.80;;;;;;5021977;28;20428;-77